< < Back
Terminal Aerodrome Forecast


Current Version              Previous Versions:   1  2  3  4  5  6  7  8  9  

Terminal Aerodrome Forecast

217
FTUS44 KBMX 281725
TAFTCL
TAF
KTCL 281725Z 2818/2918 31005KT P6SM VCTS SCT050CB
     FM290200 28004KT P6SM SCT250
     FM290800 00000KT 5SM BR SCT250=

Latest METAR

092
SAUS70 KWBC 290400 RRJ
MTRTCL
METAR KTCL 290353Z AUTO 00000KT 7SM CLR 27/25 A2999 RMK AO2 SLP154
T02670250


USA.gov is the U.S. government's official web portal to all federal, state and local government web resources and services.